createdAt,value
2022-08-31T00:02:28.013Z,14.10
2022-08-31T00:08:21.381Z,14.00
2022-08-31T00:14:14.787Z,14.10
2022-08-31T00:20:32.320Z,13.90
2022-08-31T00:26:26.504Z,14.10
2022-08-31T00:32:21.645Z,13.90
2022-08-31T00:38:17.722Z,13.80
2022-08-31T00:44:12.874Z,13.80
2022-08-31T00:50:10.499Z,13.70
2022-08-31T00:56:06.232Z,13.90
2022-08-31T01:01:59.663Z,13.70
2022-08-31T01:07:54.192Z,13.80
2022-08-31T01:13:49.329Z,13.70
2022-08-31T01:19:52.085Z,13.80
2022-08-31T01:25:48.630Z,13.90
2022-08-31T01:31:43.927Z,13.90
2022-08-31T01:37:37.450Z,13.80
2022-08-31T01:43:34.928Z,13.60
2022-08-31T01:49:28.328Z,13.40
2022-08-31T01:55:22.002Z,13.40
2022-08-31T02:01:33.759Z,13.30
2022-08-31T02:07:28.185Z,13.30
2022-08-31T02:13:21.121Z,13.30
2022-08-31T02:19:18.064Z,13.10
2022-08-31T02:25:12.448Z,13.00
2022-08-31T02:31:06.202Z,12.80
2022-08-31T02:37:11.841Z,13.00
2022-08-31T02:43:05.285Z,13.20
2022-08-31T02:48:58.807Z,13.00
2022-08-31T02:54:53.594Z,12.80
2022-08-31T03:00:48.553Z,12.60
2022-08-31T03:06:43.570Z,12.50
2022-08-31T03:12:38.515Z,12.40
2022-08-31T03:18:33.295Z,12.50
2022-08-31T03:24:27.987Z,12.40
2022-08-31T03:30:24.867Z,12.10
2022-08-31T03:36:28.367Z,12.00
2022-08-31T03:42:22.030Z,12.00
2022-08-31T03:48:16.704Z,12.70
2022-08-31T03:54:11.643Z,12.20
2022-08-31T04:00:07.371Z,12.40
2022-08-31T04:06:11.786Z,12.20
2022-08-31T04:12:25.387Z,12.20
2022-08-31T04:18:34.050Z,11.80
2022-08-31T04:24:29.391Z,11.80
2022-08-31T04:30:22.467Z,11.60
2022-08-31T04:36:18.192Z,12.00
2022-08-31T04:42:13.669Z,12.80
2022-08-31T04:48:07.183Z,13.10
2022-08-31T04:54:00.948Z,12.40
2022-08-31T04:59:55.790Z,11.80
2022-08-31T05:06:13.269Z,12.30
2022-08-31T05:12:06.998Z,12.40
2022-08-31T05:18:01.614Z,12.80
2022-08-31T05:24:01.136Z,12.30
2022-08-31T05:29:54.863Z,12.90
2022-08-31T05:36:09.174Z,13.30
2022-08-31T05:42:08.028Z,13.20
2022-08-31T05:48:01.444Z,13.30
2022-08-31T05:53:59.559Z,13.40
2022-08-31T05:59:52.914Z,13.50
2022-08-31T06:05:47.412Z,13.90
2022-08-31T06:11:42.546Z,14.00
2022-08-31T06:17:39.190Z,14.00
2022-08-31T06:23:32.997Z,14.30
2022-08-31T06:29:28.062Z,14.60
2022-08-31T06:35:21.260Z,14.70
2022-08-31T06:41:35.699Z,14.90
2022-08-31T06:47:49.552Z,15.30
2022-08-31T06:53:45.244Z,15.60
2022-08-31T06:59:56.956Z,15.80
2022-08-31T07:06:12.154Z,15.90
2022-08-31T07:12:06.286Z,16.10
2022-08-31T07:17:59.685Z,16.10
2022-08-31T07:23:55.267Z,16.40
2022-08-31T07:29:48.827Z,16.50
2022-08-31T07:35:43.620Z,16.70
2022-08-31T07:42:03.892Z,16.80
2022-08-31T07:48:00.171Z,17.10
2022-08-31T07:54:04.114Z,17.30
2022-08-31T08:00:14.594Z,17.50
2022-08-31T08:06:10.480Z,17.60
2022-08-31T08:12:22.527Z,17.70
2022-08-31T08:18:39.648Z,17.90
2022-08-31T08:24:33.995Z,18.00
2022-08-31T08:30:27.360Z,18.30
2022-08-31T08:36:22.276Z,18.30
2022-08-31T08:42:17.554Z,18.50
2022-08-31T08:48:14.167Z,18.70
2022-08-31T08:54:14.563Z,18.70
2022-08-31T09:00:12.696Z,18.80
2022-08-31T09:06:12.069Z,19.00
2022-08-31T09:12:26.195Z,19.00
2022-08-31T09:18:43.578Z,19.00
2022-08-31T09:24:37.196Z,19.00
2022-08-31T09:30:52.731Z,19.30
2022-08-31T09:36:47.248Z,19.40
2022-08-31T09:42:40.676Z,19.40
2022-08-31T09:48:52.305Z,19.60
2022-08-31T09:55:13.781Z,20.00
2022-08-31T10:01:13.277Z,20.10
2022-08-31T10:07:20.273Z,20.40
2022-08-31T10:13:18.903Z,20.70
2022-08-31T10:19:16.253Z,20.90
2022-08-31T10:25:18.462Z,21.10
2022-08-31T10:31:21.407Z,21.00
2022-08-31T10:37:24.929Z,20.90
2022-08-31T10:43:21.922Z,21.20
2022-08-31T10:49:15.574Z,21.50
2022-08-31T10:55:18.492Z,21.40
2022-08-31T11:01:19.184Z,22.10
2022-08-31T11:07:27.085Z,22.60
2022-08-31T11:13:39.388Z,22.90
2022-08-31T11:19:58.510Z,23.40
2022-08-31T11:26:36.481Z,23.60
2022-08-31T11:32:35.635Z,23.50
2022-08-31T11:38:52.669Z,23.60
2022-08-31T11:45:14.063Z,23.30
2022-08-31T11:51:08.194Z,23.30
2022-08-31T11:57:03.698Z,23.80
2022-08-31T12:03:09.804Z,24.20
2022-08-31T12:09:24.809Z,24.70
2022-08-31T12:15:25.724Z,24.80
2022-08-31T12:21:43.650Z,25.10
2022-08-31T12:27:45.147Z,25.30
2022-08-31T12:33:57.119Z,25.60
2022-08-31T12:39:50.860Z,25.90
2022-08-31T12:45:58.741Z,26.40
2022-08-31T12:52:01.069Z,26.00
2022-08-31T12:58:06.439Z,25.40
2022-08-31T13:04:03.065Z,25.30
2022-08-31T13:10:10.717Z,24.80
2022-08-31T13:16:05.355Z,24.40
2022-08-31T13:22:01.155Z,24.90
2022-08-31T13:27:55.347Z,24.20
2022-08-31T13:33:48.386Z,24.00
2022-08-31T13:39:46.122Z,23.70
2022-08-31T13:45:58.139Z,23.60
2022-08-31T13:51:51.696Z,24.20
2022-08-31T13:57:59.661Z,25.30
2022-08-31T14:03:58.129Z,24.80
2022-08-31T14:09:53.702Z,25.60
2022-08-31T14:15:54.050Z,26.30
2022-08-31T14:21:50.425Z,25.40
2022-08-31T14:27:43.328Z,25.10
2022-08-31T14:33:36.834Z,24.80
2022-08-31T14:39:34.285Z,26.50
2022-08-31T14:45:27.106Z,27.20
2022-08-31T14:51:19.983Z,28.00
2022-08-31T14:57:18.623Z,27.80
2022-08-31T15:03:12.310Z,27.20
2022-08-31T15:09:05.738Z,27.50
2022-08-31T15:15:00.380Z,27.40
2022-08-31T15:20:54.185Z,26.60
2022-08-31T15:26:47.691Z,26.20
2022-08-31T15:32:45.517Z,25.90
2022-08-31T15:38:41.187Z,25.80
2022-08-31T15:44:38.134Z,25.60
2022-08-31T15:50:33.216Z,25.30
2022-08-31T15:56:26.799Z,24.90
2022-08-31T16:02:20.772Z,24.70
2022-08-31T16:08:15.579Z,24.40
2022-08-31T16:14:11.218Z,24.30
2022-08-31T16:20:05.517Z,24.30
2022-08-31T16:26:00.893Z,24.20
2022-08-31T16:31:54.401Z,24.00
2022-08-31T16:37:47.606Z,23.90
2022-08-31T16:43:43.217Z,23.90
2022-08-31T16:49:39.140Z,23.80
2022-08-31T16:55:33.027Z,23.70
2022-08-31T17:01:31.355Z,23.60
2022-08-31T17:07:25.959Z,23.50
2022-08-31T17:13:19.351Z,23.30
2022-08-31T17:19:15.846Z,23.20
2022-08-31T17:25:09.905Z,23.00
2022-08-31T17:31:05.272Z,22.70
2022-08-31T17:37:03.120Z,22.50
2022-08-31T17:43:00.110Z,22.50
2022-08-31T17:48:55.722Z,22.30
2022-08-31T17:54:52.591Z,22.20
2022-08-31T18:00:50.298Z,22.00
2022-08-31T18:06:44.818Z,21.90
2022-08-31T18:12:42.316Z,21.80
2022-08-31T18:18:35.778Z,21.70
2022-08-31T18:24:29.716Z,21.50
2022-08-31T18:30:24.567Z,21.30
2022-08-31T18:36:19.547Z,21.20
2022-08-31T18:42:33.878Z,21.10
2022-08-31T18:48:28.480Z,20.90
2022-08-31T18:54:23.058Z,20.70
2022-08-31T19:00:16.821Z,20.70
2022-08-31T19:06:18.323Z,20.60
2022-08-31T19:12:17.128Z,20.40
2022-08-31T19:18:10.498Z,20.20
2022-08-31T19:24:07.854Z,20.10
2022-08-31T19:30:01.283Z,19.90
2022-08-31T19:36:00.043Z,19.90
2022-08-31T19:41:59.890Z,19.80
2022-08-31T19:47:53.894Z,19.70
2022-08-31T19:53:49.710Z,19.50
2022-08-31T19:59:45.333Z,19.40
2022-08-31T20:05:42.433Z,19.40
2022-08-31T20:11:37.356Z,19.30
2022-08-31T20:17:33.369Z,19.20
2022-08-31T20:23:27.746Z,19.20
2022-08-31T20:29:21.555Z,19.20
2022-08-31T20:35:16.433Z,19.00
2022-08-31T20:41:09.883Z,18.90
2022-08-31T20:47:22.789Z,18.90
2022-08-31T20:53:25.037Z,18.60
2022-08-31T20:59:34.071Z,18.60
2022-08-31T21:05:38.930Z,18.50
2022-08-31T21:11:36.973Z,18.50
2022-08-31T21:17:31.826Z,18.60
2022-08-31T21:23:24.819Z,18.40
2022-08-31T21:29:19.209Z,18.30
2022-08-31T21:35:15.344Z,18.10
2022-08-31T21:41:10.897Z,18.10
2022-08-31T21:47:05.810Z,18.00
2022-08-31T21:53:00.703Z,17.90
2022-08-31T21:58:54.110Z,17.90
2022-08-31T22:04:48.800Z,17.80
2022-08-31T22:10:42.640Z,17.70
2022-08-31T22:16:37.837Z,17.40
2022-08-31T22:22:32.562Z,17.50
2022-08-31T22:28:28.038Z,17.40
2022-08-31T22:34:21.997Z,17.20
2022-08-31T22:40:21.247Z,16.90
2022-08-31T22:46:17.133Z,16.80
2022-08-31T22:52:14.020Z,16.80
2022-08-31T22:58:12.870Z,16.80
2022-08-31T23:04:08.708Z,16.60
2022-08-31T23:10:03.359Z,16.50
2022-08-31T23:16:00.010Z,16.50
2022-08-31T23:21:57.510Z,16.30
2022-08-31T23:27:52.518Z,16.00
2022-08-31T23:33:47.361Z,16.00
2022-08-31T23:39:43.472Z,15.90
2022-08-31T23:45:38.258Z,16.00
2022-08-31T23:51:33.487Z,15.90
2022-08-31T23:57:32.406Z,15.80
